Time;durP1;ratioP1;P1;durP2;ratioP2;P2;SDS_P1;SDS_P2;PMS_P1;PMS_P2;Temp;Humidity;BMP_temperature;BMP_pressure;BME280_temperature;BME280_humidity;BME280_pressure;Samples;Min_cycle;Max_cycle;Signal;HPM_P1;HPM_P2
2023/04/25 04:22:33;;;;;;;4.30;2.53;;;;;;;7.85;100.00;99591.31;5089473;28;20324;-68
2023/04/25 04:25:08;;;;;;;6.28;2.88;;;;;;;7.88;100.00;99607.72;5088193;28;20044;-68
2023/04/25 04:27:54;;;;;;;4.38;3.08;;;;;;;7.87;100.00;99603.41;5068908;28;20056;-68
2023/04/25 04:30:45;;;;;;;5.65;2.58;;;;;;;7.86;100.00;99600.94;5058708;28;20125;-68
2023/04/25 04:33:12;;;;;;;5.97;3.00;;;;;;;7.83;100.00;99591.50;5069221;28;20044;-68
2023/04/25 04:35:41;;;;;;;3.72;2.70;;;;;;;7.85;100.00;99600.09;5067810;28;20401;-68
2023/04/25 04:38:07;;;;;;;4.13;2.90;;;;;;;7.86;100.00;99603.59;5067431;28;20033;-69
2023/04/25 04:40:34;;;;;;;6.45;3.28;;;;;;;7.88;100.00;99607.72;5067579;28;20037;-68
2023/04/25 04:43:10;;;;;;;4.28;2.65;;;;;;;7.89;100.00;99604.09;5067644;28;20049;-68
2023/04/25 04:45:58;;;;;;;4.45;2.92;;;;;;;7.88;100.00;99604.22;5068560;28;20049;-68
2023/04/25 04:48:50;;;;;;;4.32;2.85;;;;;;;7.87;100.00;99606.06;5067213;28;20101;-69
2023/04/25 04:51:31;;;;;;;4.93;2.72;;;;;;;7.89;100.00;99609.38;5067542;28;20033;-68
2023/04/25 04:54:06;;;;;;;3.80;2.58;;;;;;;7.96;100.00;99614.00;5067529;28;20090;-68
2023/04/25 04:56:58;;;;;;;3.42;2.92;;;;;;;8.00;100.00;99621.44;5052040;28;20201;-67
2023/04/25 04:59:46;;;;;;;5.00;3.08;;;;;;;8.07;100.00;99618.91;5048907;28;20102;-68
2023/04/25 05:02:47;;;;;;;3.83;2.85;;;;;;;7.78;100.00;99577.94;5046312;28;20155;-68
2023/04/25 05:05:39;;;;;;;4.93;2.90;;;;;;;8.08;100.00;99617.91;5065665;28;20045;-68
2023/04/25 05:08:30;;;;;;;7.72;2.88;;;;;;;8.04;100.00;99612.13;5066920;28;20136;-68
2023/04/25 05:11:13;;;;;;;5.50;3.15;;;;;;;8.00;100.00;99599.38;5067059;28;20036;-68
2023/04/25 05:13:54;;;;;;;3.78;2.55;;;;;;;8.15;100.00;99613.59;5068410;28;20643;-68
2023/04/25 05:16:40;;;;;;;5.88;2.90;;;;;;;8.12;100.00;99609.44;5066905;28;20037;-68
2023/04/25 05:19:23;;;;;;;4.35;3.08;;;;;;;8.13;100.00;99615.56;5068102;28;20129;-69
2023/04/25 05:22:07;;;;;;;7.07;3.35;;;;;;;8.19;100.00;99614.06;5066880;28;20471;-68
2023/04/25 05:24:52;;;;;;;5.28;3.15;;;;;;;8.22;100.00;99614.56;5068187;28;20037;-67
2023/04/25 05:27:50;;;;;;;6.57;3.58;;;;;;;8.22;100.00;99619.88;5066470;28;20481;-67
2023/04/25 05:30:34;;;;;;;7.03;3.20;;;;;;;8.30;100.00;99619.81;5067967;28;20051;-67
2023/04/25 05:33:07;;;;;;;6.80;3.58;;;;;;;8.35;100.00;99617.50;5057663;28;20047;-68
2023/04/25 05:35:33;;;;;;;4.80;2.75;;;;;;;8.39;100.00;99618.78;5053368;28;20131;-69
2023/04/25 05:37:59;;;;;;;6.00;3.30;;;;;;;8.48;100.00;99616.13;5053083;28;20025;-68
2023/04/25 05:40:44;;;;;;;5.53;3.65;;;;;;;8.54;100.00;99616.25;5053133;28;20040;-67
2023/04/25 05:43:15;;;;;;;6.38;3.22;;;;;;;8.59;100.00;99621.81;5053336;28;20052;-67
2023/04/25 05:45:50;;;;;;;4.95;3.22;;;;;;;8.67;100.00;99628.91;5070103;28;20045;-67
2023/04/25 05:48:36;;;;;;;4.65;3.10;;;;;;;8.76;100.00;99635.84;5053618;28;20049;-68
2023/04/25 05:51:24;;;;;;;5.70;3.47;;;;;;;8.84;100.00;99633.13;5048612;28;20271;-68
2023/04/25 05:54:04;;;;;;;4.60;3.03;;;;;;;8.87;100.00;99630.13;5053214;28;20067;-69
2023/04/25 05:56:31;;;;;;;5.10;3.08;;;;;;;8.92;100.00;99635.72;5054206;28;20043;-67
2023/04/25 05:58:56;;;;;;;4.32;2.80;;;;;;;8.91;100.00;99636.72;5052555;28;20123;-69
2023/04/25 06:01:23;;;;;;;4.75;3.00;;;;;;;8.90;100.00;99648.34;5052851;28;20029;-69
2023/04/25 06:03:48;;;;;;;6.15;3.25;;;;;;;8.90;100.00;99645.69;5052834;28;20036;-67
2023/04/25 06:06:17;;;;;;;5.40;2.90;;;;;;;8.89;100.00;99649.34;5052494;28;20461;-67
2023/04/25 06:08:42;;;;;;;5.18;2.65;;;;;;;8.90;100.00;99656.31;5032314;28;20061;-69
2023/04/25 06:11:10;;;;;;;;;;;;;;;8.88;100.00;99647.72;5034306;28;20033;-69
2023/04/25 06:13:35;;;;;;;6.55;3.03;;;;;;;8.79;100.00;99654.06;5032696;28;19912;-68
2023/04/25 06:16:01;;;;;;;4.82;2.40;;;;;;;8.77;100.00;99655.25;5032546;28;20112;-68
2023/04/25 06:18:26;;;;;;;5.00;2.63;;;;;;;8.72;100.00;99650.47;5032409;28;20037;-64
2023/04/25 06:20:52;;;;;;;3.95;2.47;;;;;;;8.69;100.00;99656.13;5032516;28;20368;-63
2023/04/25 06:23:18;;;;;;;4.07;2.75;;;;;;;8.68;100.00;99662.44;5032670;28;20665;-64
2023/04/25 06:25:52;;;;;;;4.78;2.63;;;;;;;8.72;100.00;99655.78;5032601;28;20040;-64
2023/04/25 06:28:19;;;;;;;4.50;2.72;;;;;;;8.73;100.00;99665.38;5032238;28;20124;-61
2023/04/25 06:30:44;;;;;;;4.55;3.33;;;;;;;8.69;100.00;99656.13;5032307;28;20030;-59
2023/04/25 06:33:13;;;;;;;4.78;2.58;;;;;;;8.70;100.00;99663.09;5032425;28;20038;-63
2023/04/25 06:35:40;;;;;;;4.10;2.88;;;;;;;8.70;100.00;99663.09;5032261;28;20033;-60
2023/04/25 06:38:08;;;;;;;5.50;3.33;;;;;;;8.75;100.00;99671.38;5031929;28;20041;-62
2023/04/25 06:40:35;;;;;;;5.40;2.88;;;;;;;8.68;100.00;99667.75;5032231;28;20095;-62
2023/04/25 06:43:02;;;;;;;6.03;3.13;;;;;;;8.69;100.00;99672.06;5032270;28;20410;-62
2023/04/25 06:45:56;;;;;;;5.05;3.08;;;;;;;8.67;100.00;99669.59;5023729;28;20072;-62
2023/04/25 06:48:25;;;;;;;4.32;2.80;;;;;;;8.69;100.00;99672.06;5031903;28;20253;-61
2023/04/25 06:50:51;;;;;;;5.30;3.28;;;;;;;8.68;100.00;99671.25;5032267;28;20091;-61
2023/04/25 06:53:18;;;;;;;5.47;3.08;;;;;;;8.67;100.00;99672.25;5042728;28;20106;-64
2023/04/25 06:55:46;;;;;;;8.25;3.97;;;;;;;8.73;100.00;99680.50;5052016;28;20533;-63
2023/04/25 06:58:18;;;;;;;6.85;3.42;;;;;;;8.76;100.00;99674.84;5051533;28;20068;-64
2023/04/25 07:01:12;;;;;;;3.97;3.05;;;;;;;8.79;100.00;99671.81;5052356;28;20039;-61
2023/04/25 07:03:38;;;;;;;4.88;2.72;;;;;;;8.69;100.00;99674.72;5051753;28;20037;-63
2023/04/25 07:06:08;;;;;;;5.45;3.10;;;;;;;8.63;100.00;99670.09;5050772;28;20059;-62
2023/04/25 07:08:34;;;;;;;5.95;2.95;;;;;;;8.66;100.00;99678.53;5051190;28;20040;-61
2023/04/25 07:10:59;;;;;;;8.75;3.13;;;;;;;8.70;100.00;99679.03;5051446;28;20067;-62
2023/04/25 07:13:25;;;;;;;5.22;3.35;;;;;;;8.67;100.00;99682.88;5051647;28;20120;-60
2023/04/25 07:15:50;;;;;;;5.45;3.38;;;;;;;8.66;100.00;99675.06;5052729;28;20057;-63
2023/04/25 07:18:18;;;;;;;6.22;3.67;;;;;;;8.69;100.00;99680.03;5051255;28;20036;-63
2023/04/25 07:20:44;;;;;;;4.95;3.22;;;;;;;8.72;100.00;99679.66;5051289;28;20508;-63
2023/04/25 07:23:10;;;;;;;7.90;3.85;;;;;;;8.81;100.00;99688.44;5051618;28;20041;-62
2023/04/25 07:25:35;;;;;;;5.50;3.17;;;;;;;8.79;100.00;99688.59;5051476;28;20509;-62
2023/04/25 07:28:01;;;;;;;7.65;3.45;;;;;;;8.77;100.00;99690.59;5050914;28;20047;-61
2023/04/25 07:30:27;;;;;;;5.25;3.38;;;;;;;8.76;100.00;99693.44;5051274;28;20036;-63
2023/04/25 07:32:53;;;;;;;5.43;3.45;;;;;;;8.73;100.00;99697.25;5051266;28;20037;-60
2023/04/25 07:35:19;;;;;;;4.53;3.13;;;;;;;8.75;100.00;99705.06;5051118;28;20025;-62
2023/04/25 07:37:44;;;;;;;6.65;4.03;;;;;;;8.66;100.00;99702.44;5050748;28;20513;-61
2023/04/25 07:40:16;;;;;;;6.50;3.30;;;;;;;8.73;100.00;99707.03;5051281;28;20032;-61
2023/04/25 07:42:45;;;;;;;5.38;3.50;;;;;;;8.71;100.00;99699.25;5050992;28;20040;-63
2023/04/25 07:45:12;;;;;;;6.25;3.35;;;;;;;8.77;100.00;99703.88;5051061;28;20090;-62
2023/04/25 07:47:39;;;;;;;6.75;3.78;;;;;;;8.78;100.00;99704.69;5050583;28;20043;-60
2023/04/25 07:50:06;;;;;;;6.10;3.65;;;;;;;8.81;100.00;99710.50;5042501;28;20032;-62
2023/04/25 07:52:32;;;;;;;6.07;3.55;;;;;;;8.83;100.00;99716.47;5050712;28;20128;-63
2023/04/25 07:55:16;;;;;;;4.88;3.25;;;;;;;8.84;100.00;99720.75;5050693;28;20106;-62
2023/04/25 07:57:59;;;;;;;7.43;3.50;;;;;;;8.82;100.00;99720.13;5050526;28;20063;-62
2023/04/25 08:00:28;;;;;;;4.68;2.92;;;;;;;8.79;100.00;99730.25;5050758;28;20520;-63
2023/04/25 08:03:09;;;;;;;7.15;3.70;;;;;;;8.72;100.00;99719.50;5050903;28;20025;-61
2023/04/25 08:05:35;;;;;;;5.25;3.05;;;;;;;8.77;100.00;99735.75;5050843;28;20037;-63
2023/04/25 08:08:06;;;;;;;4.70;3.65;;;;;;;8.73;100.00;99742.38;5050339;28;20025;-61
2023/04/25 08:10:32;;;;;;;;;;;;;;;8.68;100.00;99750.91;5050938;28;20387;-59
2023/04/25 08:12:57;;;;;;;6.68;3.80;;;;;;;8.78;100.00;99748.00;5051819;28;19920;-64
2023/04/25 08:15:23;;;;;;;7.28;3.88;;;;;;;8.70;100.00;99750.72;5050512;28;20072;-64
2023/04/25 08:17:48;;;;;;;6.72;4.15;;;;;;;8.64;100.00;99762.03;5050263;28;20045;-62
2023/04/25 08:20:14;;;;;;;6.15;3.88;;;;;;;8.74;100.00;99761.81;5050378;28;20040;-61
2023/04/25 08:22:40;;;;;;;6.70;4.22;;;;;;;8.74;100.00;99756.50;5047761;28;20065;-60
2023/04/25 08:25:25;;;;;;;7.72;4.50;;;;;;;8.78;100.00;99761.28;5050468;28;20048;-63
2023/04/25 08:27:51;;;;;;;8.20;4.38;;;;;;;8.86;100.00;99769.22;5050305;28;20402;-63
2023/04/25 08:30:20;;;;;;;9.75;5.03;;;;;;;8.87;100.00;99772.72;5050404;28;20036;-63
2023/04/25 08:32:46;;;;;;;9.05;5.05;;;;;;;8.87;100.00;99775.38;5050390;28;20068;-63
2023/04/25 08:35:44;;;;;;;8.63;5.25;;;;;;;8.87;100.00;99783.34;5039559;28;20094;-63
2023/04/25 08:38:10;;;;;;;7.15;4.28;;;;;;;8.83;100.00;99784.69;5048297;28;20037;-64
2023/04/25 08:40:39;;;;;;;9.20;5.22;;;;;;;8.83;100.00;99780.19;5049749;28;20025;-61
2023/04/25 08:43:13;;;;;;;7.45;5.22;;;;;;;8.87;100.00;99791.31;5047954;28;20089;-62
2023/04/25 08:45:41;;;;;;;10.52;4.75;;;;;;;8.95;100.00;99791.28;5050397;28;20110;-60
2023/04/25 08:48:15;;;;;;;9.38;5.78;;;;;;;9.03;100.00;99801.03;5049141;28;20386;-60
2023/04/25 08:50:45;;;;;;;10.63;5.55;;;;;;;9.04;100.00;99794.69;5050246;28;20041;-62
2023/04/25 08:53:16;;;;;;;8.20;4.78;;;;;;;9.12;100.00;99799.97;5051527;28;20094;-61
2023/04/25 08:55:42;;;;;;;11.55;5.88;;;;;;;9.12;100.00;99797.31;5050185;28;20033;-60
2023/04/25 08:58:11;;;;;;;9.45;5.45;;;;;;;9.17;100.00;99816.22;5050127;28;20119;-62
2023/04/25 09:00:37;;;;;;;7.90;5.18;;;;;;;9.14;100.00;99812.09;5051544;28;20028;-65
2023/04/25 09:03:03;;;;;;;9.40;5.00;;;;;;;9.12;100.00;99808.75;5050204;28;20056;-64
2023/04/25 09:05:35;;;;;;;8.98;5.55;;;;;;;9.10;100.00;99817.91;5049958;28;20061;-62
2023/04/25 09:08:01;;;;;;;8.18;5.15;;;;;;;9.17;100.00;99817.03;5051420;28;20036;-63
2023/04/25 09:10:27;;;;;;;10.95;5.35;;;;;;;9.16;100.00;99826.03;5053888;28;20037;-62
2023/04/25 09:13:26;;;;;;;9.32;5.68;;;;;;;9.14;100.00;99829.88;5053865;28;20025;-62
2023/04/25 09:16:17;;;;;;;10.48;5.72;;;;;;;9.04;100.00;99823.94;5051940;28;20044;-65
2023/04/25 09:19:21;;;;;;;9.77;5.15;;;;;;;9.13;100.00;99841.50;5053504;28;20782;-62
2023/04/25 09:21:49;;;;;;;10.00;6.13;;;;;;;9.11;100.00;99838.16;5053565;28;20391;-64
2023/04/25 09:24:15;;;;;;;11.45;5.63;;;;;;;9.07;100.00;99843.03;5053611;28;20566;-63
2023/04/25 09:26:40;;;;;;;9.20;5.57;;;;;;;9.02;100.00;99855.16;5054733;28;20040;-61
2023/04/25 09:29:07;;;;;;;12.35;5.75;;;;;;;8.92;100.00;99861.50;5053301;28;20182;-61
2023/04/25 09:31:34;;;;;;;13.95;6.30;;;;;;;8.95;100.00;99857.69;5053421;28;20037;-61
2023/04/25 09:34:02;;;;;;;12.23;6.13;;;;;;;8.93;100.00;99870.28;5053347;28;20060;-62
2023/04/25 09:36:35;;;;;;;10.38;5.28;;;;;;;8.94;100.00;99875.44;5053381;28;20127;-63
2023/04/25 09:39:32;;;;;;;9.27;5.15;;;;;;;8.94;100.00;99879.94;5053267;28;20076;-63
2023/04/25 09:42:05;;;;;;;10.48;5.05;;;;;;;8.93;100.00;99883.56;5053267;28;20128;-62
2023/04/25 09:44:31;;;;;;;10.38;6.15;;;;;;;8.88;100.00;99892.06;5053146;28;20123;-63
2023/04/25 09:46:57;;;;;;;13.40;6.95;;;;;;;8.89;100.00;99898.22;5053102;28;20043;-64
2023/04/25 09:49:27;;;;;;;12.93;5.53;;;;;;;8.92;100.00;99898.69;5053041;28;20037;-64
2023/04/25 09:52:13;;;;;;;10.48;5.57;;;;;;;8.91;100.00;99917.44;5053061;28;20032;-62
2023/04/25 09:54:57;;;;;;;9.65;4.70;;;;;;;8.88;100.00;99923.94;5054521;28;20591;-63
2023/04/25 09:57:29;;;;;;;6.47;4.25;;;;;;;8.27;100.00;99924.47;5052671;28;20039;-63
2023/04/25 09:59:56;;;;;;;5.78;3.75;;;;;;;8.50;100.00;99928.16;5052926;28;20079;-63
2023/04/25 10:02:25;;;;;;;7.60;4.00;;;;;;;8.45;100.00;99935.78;5052930;28;20515;-60
2023/04/25 10:04:55;;;;;;;6.82;4.10;;;;;;;8.37;100.00;99930.50;5052924;28;20061;-63
2023/04/25 10:07:28;;;;;;;7.10;3.80;;;;;;;8.14;100.00;99922.31;5052452;28;20060;-62
2023/04/25 10:10:03;;;;;;;6.32;3.60;;;;;;;8.20;100.00;99928.78;5053029;28;20040;-63
2023/04/25 10:12:29;;;;;;;7.10;4.20;;;;;;;8.28;100.00;99934.94;5054106;28;20405;-63
2023/04/25 10:14:55;;;;;;;6.47;3.63;;;;;;;8.30;100.00;99932.94;5053931;28;20242;-63
2023/04/25 10:17:20;;;;;;;9.13;4.25;;;;;;;8.23;100.00;99931.97;5053600;28;20131;-63
2023/04/25 10:19:47;;;;;;;8.63;4.20;;;;;;;8.19;100.00;99921.84;5053689;28;20112;-64
2023/04/25 10:22:35;;;;;;;7.50;4.63;;;;;;;8.11;100.00;99938.59;5053765;28;20120;-63
2023/04/25 10:25:03;;;;;;;7.75;4.53;;;;;;;8.15;100.00;99938.09;5053752;28;20079;-61
2023/04/25 10:27:29;;;;;;;;;;;;;;;8.12;100.00;99942.88;5053835;28;20040;-61
2023/04/25 10:30:04;;;;;;;8.38;4.68;;;;;;;8.02;100.00;99939.53;5053664;28;19916;-62
2023/04/25 10:32:31;;;;;;;9.57;4.82;;;;;;;7.96;100.00;99945.53;5053358;28;20123;-62
2023/04/25 10:34:57;;;;;;;7.82;5.18;;;;;;;7.99;100.00;99947.84;5053566;28;20072;-61
2023/04/25 10:37:24;;;;;;;10.68;5.78;;;;;;;8.04;100.00;99945.53;5053159;28;20071;-59
2023/04/25 10:39:49;;;;;;;12.98;5.80;;;;;;;7.94;100.00;99947.50;5053544;28;20490;-61
2023/04/25 10:42:14;;;;;;;11.32;5.10;;;;;;;8.00;100.00;99952.16;5053418;28;20128;-61
2023/04/25 10:44:40;;;;;;;11.48;5.63;;;;;;;7.94;100.00;99950.97;5053319;28;20094;-60
2023/04/25 10:47:07;;;;;;;9.05;4.65;;;;;;;7.87;100.00;99947.31;5052817;28;20555;-62
2023/04/25 10:49:35;;;;;;;8.65;4.38;;;;;;;7.71;100.00;99957.91;5053256;28;20082;-62
2023/04/25 10:52:32;;;;;;;7.47;4.43;;;;;;;7.71;100.00;99965.88;5053138;28;20025;-64
2023/04/25 10:54:58;;;;;;;7.22;3.90;;;;;;;7.59;100.00;99966.16;5044721;28;20052;-64
2023/04/25 10:57:30;;;;;;;9.85;4.22;;;;;;;7.53;100.00;99974.75;5052674;28;20418;-63
2023/04/25 11:00:15;;;;;;;9.90;4.28;;;;;;;7.49;100.00;99967.25;5053054;28;20037;-63
2023/04/25 11:02:51;;;;;;;12.25;5.47;;;;;;;7.76;100.00;99968.84;5053076;28;20037;-62
2023/04/25 11:05:27;;;;;;;14.00;5.63;;;;;;;7.77;100.00;99971.34;5052911;28;20052;-63
2023/04/25 11:07:56;;;;;;;10.52;6.05;;;;;;;7.80;100.00;99972.84;5052662;28;20112;-63
2023/04/25 11:10:31;;;;;;;12.60;6.10;;;;;;;7.85;100.00;99971.38;5051518;28;20024;-62
2023/04/25 11:12:57;;;;;;;9.32;6.03;;;;;;;7.89;100.00;99975.38;5052939;28;20036;-61
2023/04/25 11:15:23;;;;;;;10.95;5.82;;;;;;;7.80;100.00;99971.00;5052784;28;20029;-61
2023/04/25 11:17:51;;;;;;;11.82;6.20;;;;;;;7.84;100.00;99966.22;5052437;28;20036;-61
2023/04/25 11:20:17;;;;;;;10.52;5.47;;;;;;;7.89;100.00;99978.00;5052540;28;20036;-62
2023/04/25 11:22:45;;;;;;;11.25;6.10;;;;;;;7.88;100.00;99978.97;5052694;28;20555;-60
2023/04/25 11:25:11;;;;;;;;;;;;;;;7.86;100.00;99986.28;5052860;28;20040;-62
2023/04/25 11:27:40;;;;;;;13.52;5.50;;;;;;;7.80;100.00;99980.78;5052264;28;19919;-62
2023/04/25 11:30:14;;;;;;;11.32;6.32;;;;;;;7.54;100.00;99972.91;5048287;28;20041;-62
2023/04/25 11:32:41;;;;;;;11.65;5.72;;;;;;;7.63;100.00;99982.56;5051853;28;20112;-62
2023/04/25 11:35:07;;;;;;;15.13;6.75;;;;;;;7.71;100.00;99979.94;5052181;28;20474;-62
2023/04/25 11:37:33;;;;;;;10.63;6.43;;;;;;;7.79;100.00;99985.25;5051670;28;20049;-63
2023/04/25 11:40:00;;;;;;;11.65;6.03;;;;;;;7.85;100.00;99991.75;5051909;28;20128;-62
2023/04/25 11:42:25;;;;;;;12.07;5.95;;;;;;;7.84;100.00;99998.06;5052040;28;20052;-61
2023/04/25 11:44:51;;;;;;;11.20;5.75;;;;;;;7.81;100.00;100004.50;5051982;28;20041;-62
2023/04/25 11:47:16;;;;;;;12.07;5.32;;;;;;;7.80;100.00;100002.84;5051386;28;20033;-62
2023/04/25 11:49:42;;;;;;;11.38;6.00;;;;;;;7.73;100.00;100004.47;5051762;28;20051;-62
2023/04/25 11:52:08;;;;;;;11.43;5.82;;;;;;;7.85;100.00;100002.34;5050567;28;20098;-62
2023/04/25 11:54:37;;;;;;;11.45;5.85;;;;;;;7.83;100.00;100005.19;5034291;28;20436;-62
2023/04/25 11:57:04;;;;;;;11.10;6.10;;;;;;;7.90;100.00;100000.06;5051324;28;20025;-62
2023/04/25 11:59:29;;;;;;;11.10;5.95;;;;;;;7.99;100.00;100016.81;5051715;28;20398;-61
2023/04/25 12:01:57;;;;;;;11.15;5.88;;;;;;;8.08;100.00;100018.47;5051638;28;20021;-63
2023/04/25 12:04:24;;;;;;;12.02;5.93;;;;;;;8.08;100.00;100021.13;5051591;28;20043;-61
2023/04/25 12:06:53;;;;;;;12.77;6.13;;;;;;;8.08;100.00;100023.78;5051412;28;20037;-63
2023/04/25 12:09:21;;;;;;;12.05;5.70;;;;;;;8.11;100.00;100020.81;5051510;28;20039;-62
2023/04/25 12:11:53;;;;;;;9.90;5.45;;;;;;;8.12;100.00;100028.63;5049180;28;20063;-63
2023/04/25 12:14:24;;;;;;;11.25;6.07;;;;;;;8.04;100.00;100019.81;5051579;28;20037;-63
2023/04/25 12:16:51;;;;;;;10.98;5.57;;;;;;;8.05;100.00;100027.59;5051236;28;20115;-63
2023/04/25 12:19:17;;;;;;;11.65;5.65;;;;;;;8.00;100.00;100023.78;5051366;28;20359;-62
2023/04/25 12:21:44;;;;;;;8.60;4.88;;;;;;;8.02;100.00;100013.81;5050317;28;20136;-62
2023/04/25 12:24:18;;;;;;;8.87;4.97;;;;;;;7.99;100.00;100017.63;5051534;28;20421;-60
2023/04/25 12:26:50;;;;;;;17.00;6.10;;;;;;;8.11;100.00;100011.03;5051164;28;20328;-61
2023/04/25 12:29:23;;;;;;;9.88;5.30;;;;;;;8.23;100.00;100016.03;5051595;28;20068;-62
2023/04/25 12:31:51;;;;;;;10.68;6.25;;;;;;;8.41;100.00;100012.28;5051534;28;20098;-61
2023/04/25 12:34:17;;;;;;;12.65;5.90;;;;;;;8.46;100.00;100010.94;5051661;28;20056;-62
2023/04/25 12:36:43;;;;;;;11.20;6.88;;;;;;;8.81;100.00;100021.25;5051515;28;20036;-62
2023/04/25 12:39:15;;;;;;;13.05;6.35;;;;;;;8.92;100.00;100020.88;5051391;28;20063;-63
2023/04/25 12:41:41;;;;;;;15.07;7.90;;;;;;;8.78;100.00;100018.91;5051622;28;20087;-62
2023/04/25 12:44:06;;;;;;;12.10;6.13;;;;;;;8.94;100.00;100023.38;5021022;28;20090;-62
2023/04/25 12:46:32;;;;;;;10.50;6.05;;;;;;;8.84;100.00;100012.09;5055549;28;20037;-62
2023/04/25 12:48:57;;;;;;;10.50;6.00;;;;;;;8.85;100.00;100027.88;5055291;28;20041;-62
2023/04/25 12:51:24;;;;;;;12.55;6.68;;;;;;;8.90;100.00;100028.19;5055453;28;20102;-62
2023/04/25 12:53:51;;;;;;;13.10;6.82;;;;;;;8.89;100.00;100031.84;5055526;28;20040;-62
2023/04/25 12:56:16;;;;;;;12.50;6.15;;;;;;;8.96;100.00;100037.31;5055553;28;20414;-61
2023/04/25 12:58:44;;;;;;;10.50;4.82;;;;;;;8.79;100.00;100030.34;5055154;28;20112;-62
2023/04/25 13:01:09;;;;;;;11.70;5.70;;;;;;;8.83;100.00;100029.88;5055397;28;20039;-62
2023/04/25 13:03:34;;;;;;;9.80;5.13;;;;;;;8.94;100.00;100031.34;5055361;28;20486;-62
2023/04/25 13:06:00;;;;;;;9.40;5.32;;;;;;;8.90;100.00;100033.50;5055293;28;20041;-62
2023/04/25 13:08:26;;;;;;;9.45;5.32;;;;;;;8.94;100.00;100032.19;5055008;28;20122;-61
2023/04/25 13:10:51;;;;;;;10.48;5.10;;;;;;;8.96;100.00;100032.84;5055147;28;20057;-62
2023/04/25 13:13:17;;;;;;;10.05;4.70;;;;;;;8.82;100.00;100024.72;5055248;28;20115;-62
2023/04/25 13:15:42;;;;;;;7.68;4.30;;;;;;;8.79;100.00;100028.53;5055072;28;20064;-61
2023/04/25 13:18:08;;;;;;;9.10;5.15;;;;;;;8.78;100.00;100028.69;5054730;28;20540;-62
2023/04/25 13:20:33;;;;;;;9.95;5.25;;;;;;;8.92;100.00;100033.34;5055022;28;20437;-62
2023/04/25 13:22:59;;;;;;;11.30;4.72;;;;;;;9.08;100.00;100033.31;5055029;28;20128;-61
2023/04/25 13:25:25;;;;;;;8.98;4.75;;;;;;;9.34;100.00;100029.63;5054849;28;20037;-62
2023/04/25 13:27:50;;;;;;;6.15;4.40;;;;;;;9.56;100.00;100028.03;5054566;28;20494;-61
2023/04/25 13:30:16;;;;;;;10.10;4.07;;;;;;;9.55;100.00;100031.72;5054742;28;20036;-63
2023/04/25 13:32:41;;;;;;;7.60;4.07;;;;;;;9.64;100.00;100035.97;5053543;28;20033;-63
2023/04/25 13:35:09;;;;;;;5.80;3.25;;;;;;;9.57;100.00;100003.09;5053684;28;20045;-61
2023/04/25 13:37:35;;;;;;;;;;;;;;;9.90;100.00;100033.03;5054895;28;20037;-62
2023/04/25 13:40:04;;;;;;;5.95;3.08;;;;;;;10.16;100.00;100043.38;5054626;28;20438;-62
2023/04/25 13:42:31;;;;;;;8.05;3.70;;;;;;;10.27;99.27;100035.88;5054622;28;20087;-61
2023/04/25 13:44:56;;;;;;;7.55;3.80;;;;;;;10.52;100.00;100033.88;5054551;28;20036;-62
2023/04/25 13:47:23;;;;;;;5.28;3.10;;;;;;;10.56;94.66;100037.84;5054141;28;20394;-62
2023/04/25 13:49:49;;;;;;;8.77;4.43;;;;;;;10.65;97.95;100037.78;5054526;28;20452;-63
2023/04/25 13:52:14;;;;;;;3.65;2.45;;;;;;;10.50;94.05;100027.91;5054363;28;20060;-60
2023/04/25 13:54:40;;;;;;;5.45;3.03;;;;;;;10.55;96.07;100019.34;5053861;28;20040;-61
2023/04/25 13:57:06;;;;;;;5.88;3.65;;;;;;;11.04;100.00;100022.44;5054068;28;20044;-62
2023/04/25 13:59:32;;;;;;;3.35;2.50;;;;;;;10.99;91.24;100026.66;5054328;28;20049;-61
2023/04/25 14:01:57;;;;;;;3.42;2.08;;;;;;;10.80;86.30;100027.97;5054302;28;20033;-61
2023/04/25 14:04:23;;;;;;;3.65;1.65;;;;;;;10.88;84.93;100033.22;5054169;28;20130;-60
2023/04/25 14:06:48;;;;;;;2.67;1.58;;;;;;;10.87;86.60;100028.91;5054059;28;20036;-62
2023/04/25 14:09:15;;;;;;;3.33;2.03;;;;;;;11.02;87.18;100034.25;5053860;28;20056;-61
2023/04/25 14:11:40;;;;;;;2.65;2.03;;;;;;;11.00;88.20;100026.44;5054077;28;20045;-58
2023/04/25 14:14:06;;;;;;;3.55;2.58;;;;;;;10.83;77.98;100032.97;5053985;28;20041;-62
2023/04/25 14:16:31;;;;;;;7.05;2.97;;;;;;;11.03;81.80;100031.44;5052571;28;20502;-62
2023/04/25 14:19:00;;;;;;;3.90;2.75;;;;;;;11.10;83.62;100029.69;5053665;28;20041;-62
2023/04/25 14:21:26;;;;;;;2.65;2.10;;;;;;;11.05;78.06;100026.75;5053742;28;20057;-63
2023/04/25 14:23:52;;;;;;;3.63;2.20;;;;;;;10.85;79.27;100020.28;5053977;28;20032;-62
2023/04/25 14:26:18;;;;;;;4.50;2.10;;;;;;;11.07;80.48;100029.22;5052785;28;20091;-62
2023/04/25 14:28:43;;;;;;;5.55;2.97;;;;;;;11.38;79.78;100027.22;5053572;28;20131;-61
2023/04/25 14:31:08;;;;;;;4.45;2.60;;;;;;;11.29;76.15;100028.34;5053681;28;20120;-62
2023/04/25 14:33:34;;;;;;;5.35;2.97;;;;;;;11.57;77.97;100022.38;5053673;28;20045;-62
2023/04/25 14:36:00;;;;;;;3.75;2.58;;;;;;;11.53;78.48;100031.72;5053549;28;20029;-62
2023/04/25 14:38:25;;;;;;;7.18;3.92;;;;;;;11.64;82.17;100029.44;5051275;28;20502;-63
2023/04/25 14:40:51;;;;;;;4.85;2.83;;;;;;;11.84;81.66;100027.03;5053621;28;20067;-61
2023/04/25 14:43:16;;;;;;;6.85;2.88;;;;;;;11.75;84.11;100030.00;5053420;28;20052;-62
2023/04/25 14:45:42;;;;;;;4.10;2.60;;;;;;;11.83;79.55;100027.25;5053364;28;20041;-62
2023/04/25 14:48:07;;;;;;;5.93;2.53;;;;;;;11.55;80.07;100030.56;5053011;28;20102;-62
2023/04/25 14:50:33;;;;;;;5.40;2.80;;;;;;;11.55;78.66;100027.06;5053302;28;20124;-62
2023/04/25 14:53:00;;;;;;;5.75;2.58;;;;;;;11.58;81.54;100032.84;5053221;28;20049;-60
2023/04/25 14:55:26;;;;;;;5.43;3.10;;;;;;;11.62;84.02;100033.31;5053155;28;20045;-61
2023/04/25 14:57:53;;;;;;;3.30;2.45;;;;;;;11.50;79.79;100035.59;5052815;28;20500;-62
2023/04/25 15:00:20;;;;;;;3.77;2.17;;;;;;;11.39;75.87;100036.06;5053231;28;20045;-61
2023/04/25 15:02:46;;;;;;;5.60;2.13;;;;;;;11.29;82.14;100033.69;5053106;28;20067;-60
2023/04/25 15:05:13;;;;;;;3.25;2.35;;;;;;;11.32;83.36;100030.63;5052141;28;20033;-62
2023/04/25 15:07:39;;;;;;;2.72;1.98;;;;;;;11.29;86.25;100038.19;5052711;28;20037;-62
2023/04/25 15:10:13;;;;;;;3.47;2.13;;;;;;;11.39;88.47;100041.41;5052969;28;20110;-62
2023/04/25 15:12:40;;;;;;;3.17;2.10;;;;;;;11.43;83.68;100039.19;5052886;28;20056;-63
2023/04/25 15:15:11;;;;;;;4.10;1.63;;;;;;;11.53;85.25;100045.91;5052852;28;20045;-62
2023/04/25 15:17:43;;;;;;;4.55;2.78;;;;;;;11.46;85.16;100042.31;5052469;28;20311;-62
2023/04/25 15:20:10;;;;;;;3.30;2.10;;;;;;;11.37;88.87;100049.59;5052668;28;20437;-62
2023/04/25 15:22:37;;;;;;;3.90;2.00;;;;;;;11.38;88.22;100051.25;5052851;28;20039;-61
2023/04/25 15:25:03;;;;;;;4.38;2.30;;;;;;;11.33;87.61;100050.94;5052832;28;20067;-62
2023/04/25 15:27:29;;;;;;;2.60;2.30;;;;;;;11.26;88.04;100054.53;5052255;28;20039;-59
2023/04/25 15:29:54;;;;;;;4.72;2.22;;;;;;;11.24;92.53;100056.56;5052809;28;20036;-63
2023/04/25 15:32:20;;;;;;;3.38;2.20;;;;;;;11.19;92.61;100057.09;5052445;28;20041;-64
2023/04/25 15:34:46;;;;;;;3.75;2.30;;;;;;;11.09;94.75;100060.03;5052542;28;20039;-64
2023/04/25 15:37:11;;;;;;;3.13;2.40;;;;;;;11.04;96.40;100056.25;5052179;28;20095;-61
2023/04/25 15:39:37;;;;;;;4.30;2.42;;;;;;;10.99;100.00;100070.13;5052470;28;20037;-63
2023/04/25 15:42:02;;;;;;;2.25;1.67;;;;;;;10.93;96.68;100070.81;5052434;28;20109;-62
2023/04/25 15:44:28;;;;;;;2.63;1.88;;;;;;;10.75;98.77;100067.66;5052354;28;20409;-63
2023/04/25 15:46:53;;;;;;;2.53;1.83;;;;;;;10.61;98.38;100074.56;5052104;28;20037;-58
2023/04/25 15:49:20;;;;;;;5.30;2.10;;;;;;;10.48;100.00;100080.50;5052210;28;20045;-63
2023/04/25 15:51:46;;;;;;;3.40;2.25;;;;;;;10.41;100.00;100079.53;5052243;28;20048;-62
2023/04/25 15:54:12;;;;;;;4.35;2.10;;;;;;;10.30;100.00;100085.25;5052232;28;20041;-59
2023/04/25 15:56:37;;;;;;;4.57;2.22;;;;;;;10.33;100.00;100084.91;5050897;28;20043;-62
2023/04/25 15:59:03;;;;;;;2.55;1.88;;;;;;;10.23;100.00;100090.44;5051846;28;20029;-65
2023/04/25 16:01:29;;;;;;;2.42;1.75;;;;;;;10.23;100.00;100095.78;5050827;28;20032;-62
2023/04/25 16:03:59;;;;;;;3.30;1.88;;;;;;;10.10;100.00;100098.13;5050855;28;20079;-61